Time;durP1;ratioP1;P1;durP2;ratioP2;P2;SDS_P1;SDS_P2;PMS_P1;PMS_P2;Temp;Humidity;BMP_temperature;BMP_pressure;BME280_temperature;BME280_humidity;BME280_pressure;Samples;Min_cycle;Max_cycle;Signal;HPM_P1;HPM_P2
2021/09/01 00:00:52;;;;;;;12.13;3.40;;;;;;;;;;4906909;28;20036;-59
2021/09/01 00:03:18;;;;;;;14.68;3.42;;;;;;;;;;4915254;28;20150;-59
2021/09/01 00:05:43;;;;;;;11.38;3.00;;;;;;;;;;4915710;28;20517;-59
2021/09/01 00:08:11;;;;;;;10.95;3.45;;;;;;;;;;4915311;28;20679;-59
2021/09/01 00:10:37;;;;;;;17.88;3.45;;;;;;;;;;4915809;28;20031;-59
2021/09/01 00:13:05;;;;;;;15.00;3.53;;;;;;;;;;4912898;28;20391;-59
2021/09/01 00:15:30;;;;;;;10.30;2.92;;;;;;;;;;4931337;28;20023;-60
2021/09/01 00:17:58;;;;;;;16.98;3.55;;;;;;;;;;4931963;28;20032;-59
2021/09/01 00:20:28;;;;;;;21.60;4.15;;;;;;;;;;4916168;28;22229;-58
2021/09/01 00:22:54;;;;;;;16.00;3.20;;;;;;;;;;4912649;28;20549;-58
2021/09/01 00:28:15;;;;;;;;;;;;;;;;;;4915478;28;20070;-59
2021/09/01 00:30:43;;;;;;;12.13;3.42;;;;;;;;;;4916817;28;20562;-59
2021/09/01 00:33:12;;;;;;;13.18;3.78;;;;;;;;;;4919916;28;20035;-58
2021/09/01 00:35:38;;;;;;;23.40;3.80;;;;;;;;;;4917407;28;20055;-59
2021/09/01 00:38:06;;;;;;;14.68;3.92;;;;;;;;;;4914374;28;20040;-60
2021/09/01 00:40:35;;;;;;;25.60;3.60;;;;;;;;;;4929319;28;20058;-60
2021/09/01 00:43:03;;;;;;;12.30;3.78;;;;;;;;;;4916150;28;20043;-60
2021/09/01 00:45:33;;;;;;;15.57;3.38;;;;;;;;;;4934580;28;20035;-60
2021/09/01 00:48:03;;;;;;;27.63;3.65;;;;;;;;;;4889746;28;20518;-59
2021/09/01 00:50:33;;;;;;;16.33;4.53;;;;;;;;;;4920353;28;20074;-60
2021/09/01 00:53:01;;;;;;;15.43;3.55;;;;;;;;;;4918828;28;20040;-60
2021/09/01 00:55:29;;;;;;;13.48;3.95;;;;;;;;;;4918233;28;20039;-60
2021/09/01 00:57:56;;;;;;;15.25;3.58;;;;;;;;;;4919456;28;20085;-60
2021/09/01 01:00:37;;;;;;;21.83;4.18;;;;;;;;;;4892974;28;20471;-60
2021/09/01 01:03:05;;;;;;;15.35;3.67;;;;;;;;;;4933873;28;20040;-59
2021/09/01 01:05:32;;;;;;;12.10;3.28;;;;;;;;;;4916387;28;20098;-60
2021/09/01 01:08:00;;;;;;;13.27;3.75;;;;;;;;;;4916134;28;20043;-60
2021/09/01 01:10:28;;;;;;;20.05;3.13;;;;;;;;;;4920108;28;20035;-59
2021/09/01 01:12:58;;;;;;;12.68;4.10;;;;;;;;;;4916625;28;20170;-60
2021/09/01 01:15:26;;;;;;;17.35;4.03;;;;;;;;;;4919463;28;20918;-59
2021/09/01 01:17:54;;;;;;;13.82;3.00;;;;;;;;;;4931720;28;20075;-60
2021/09/01 01:20:22;;;;;;;16.13;3.83;;;;;;;;;;4931310;28;20042;-60
2021/09/01 01:22:47;;;;;;;14.63;3.92;;;;;;;;;;4907532;28;20130;-60
2021/09/01 01:25:27;;;;;;;16.50;3.10;;;;;;;;;;4919583;28;20368;-60
2021/09/01 01:27:54;;;;;;;12.90;3.22;;;;;;;;;;4917035;28;20042;-60
2021/09/01 01:30:23;;;;;;;24.23;4.90;;;;;;;;;;4901846;29;21584;-59
2021/09/01 01:32:54;;;;;;;14.60;3.60;;;;;;;;;;4934041;28;20486;-60
2021/09/01 01:35:32;;;;;;;12.32;3.10;;;;;;;;;;4918471;28;20027;-59
2021/09/01 01:38:04;;;;;;;24.80;3.40;;;;;;;;;;4919207;28;20039;-59
2021/09/01 01:40:30;;;;;;;16.45;3.13;;;;;;;;;;4932557;28;20055;-60
2021/09/01 01:42:56;;;;;;;10.13;3.25;;;;;;;;;;4915402;28;20028;-61
2021/09/01 01:45:29;;;;;;;15.75;3.13;;;;;;;;;;4900722;28;20040;-60
2021/09/01 01:47:59;;;;;;;19.88;3.35;;;;;;;;;;4919611;28;22077;-58
2021/09/01 01:50:29;;;;;;;15.85;4.07;;;;;;;;;;4889107;28;20035;-59
2021/09/01 01:52:57;;;;;;;21.67;3.60;;;;;;;;;;4916233;28;20032;-59
2021/09/01 01:55:22;;;;;;;12.98;3.15;;;;;;;;;;4916827;28;20024;-60
2021/09/01 01:57:50;;;;;;;17.05;3.35;;;;;;;;;;4917859;28;20035;-60
2021/09/01 02:00:15;;;;;;;14.40;2.90;;;;;;;;;;4916450;28;20050;-59
2021/09/01 02:02:46;;;;;;;17.88;3.13;;;;;;;;;;4932478;28;20039;-58
2021/09/01 02:05:11;;;;;;;14.23;3.40;;;;;;;;;;4917574;28;20079;-59
2021/09/01 02:07:39;;;;;;;27.67;3.85;;;;;;;;;;4918395;28;20138;-59
2021/09/01 02:10:08;;;;;;;11.98;3.42;;;;;;;;;;4918221;28;20046;-60
2021/09/01 02:12:36;;;;;;;18.83;3.70;;;;;;;;;;4918397;28;20144;-60
2021/09/01 02:15:03;;;;;;;12.02;3.28;;;;;;;;;;4915817;28;20036;-59
2021/09/01 02:17:29;;;;;;;20.05;3.92;;;;;;;;;;4923383;28;20034;-60
2021/09/01 02:19:55;;;;;;;12.00;2.88;;;;;;;;;;4917814;28;20790;-59
2021/09/01 02:22:20;;;;;;;15.20;3.60;;;;;;;;;;4899749;29;20020;-59
2021/09/01 02:24:49;;;;;;;15.38;2.80;;;;;;;;;;4917709;28;20027;-60
2021/09/01 02:27:14;;;;;;;10.57;3.20;;;;;;;;;;4920111;28;20042;-60
2021/09/01 02:29:40;;;;;;;13.20;3.50;;;;;;;;;;4919032;28;20039;-60
2021/09/01 02:32:08;;;;;;;14.32;3.17;;;;;;;;;;4923375;28;20391;-62
2021/09/01 02:34:34;;;;;;;12.63;2.90;;;;;;;;;;4932174;28;20051;-60
2021/09/01 02:36:59;;;;;;;8.77;2.88;;;;;;;;;;4931022;28;20059;-60
2021/09/01 02:39:25;;;;;;;17.63;3.17;;;;;;;;;;4924531;28;20077;-60
2021/09/01 02:41:50;;;;;;;11.02;2.65;;;;;;;;;;4916362;28;20040;-59
2021/09/01 02:44:16;;;;;;;18.88;3.15;;;;;;;;;;4920569;28;20710;-59
2021/09/01 02:46:41;;;;;;;16.48;3.33;;;;;;;;;;4916301;28;20031;-60
2021/09/01 02:49:09;;;;;;;15.73;3.58;;;;;;;;;;4916714;28;20707;-59
2021/09/01 02:51:38;;;;;;;15.60;3.22;;;;;;;;;;4918561;28;20237;-60
2021/09/01 02:54:03;;;;;;;10.60;3.42;;;;;;;;;;4921363;28;20095;-59
2021/09/01 02:56:29;;;;;;;16.23;3.05;;;;;;;;;;4917175;28;20071;-60
2021/09/01 02:58:54;;;;;;;12.77;3.55;;;;;;;;;;4919156;28;20031;-59
2021/09/01 03:01:22;;;;;;;11.40;3.53;;;;;;;;;;4914122;28;20061;-59
2021/09/01 03:03:47;;;;;;;13.35;3.50;;;;;;;;;;4906630;28;20085;-58
2021/09/01 03:06:12;;;;;;;15.32;3.20;;;;;;;;;;4931514;28;20154;-58
2021/09/01 03:08:40;;;;;;;17.25;3.47;;;;;;;;;;4932953;28;20035;-59
2021/09/01 03:11:10;;;;;;;11.63;3.10;;;;;;;;;;4917865;28;20075;-60
2021/09/01 03:13:38;;;;;;;17.63;3.30;;;;;;;;;;4915164;28;20023;-58
2021/09/01 03:16:06;;;;;;;17.25;3.55;;;;;;;;;;4922422;28;20039;-58
2021/09/01 03:18:33;;;;;;;10.18;3.35;;;;;;;;;;4913711;28;20027;-59
2021/09/01 03:21:01;;;;;;;10.02;3.30;;;;;;;;;;4919394;28;20054;-59
2021/09/01 03:23:27;;;;;;;15.82;3.72;;;;;;;;;;4915381;28;20049;-59
2021/09/01 03:25:52;;;;;;;17.85;3.75;;;;;;;;;;4912711;28;20629;-59
2021/09/01 03:28:17;;;;;;;25.30;3.60;;;;;;;;;;4922006;28;20035;-59
2021/09/01 03:30:43;;;;;;;14.25;3.17;;;;;;;;;;4883335;29;20039;-59
2021/09/01 03:33:09;;;;;;;14.23;3.67;;;;;;;;;;4916187;28;20033;-59
2021/09/01 03:35:37;;;;;;;16.63;2.65;;;;;;;;;;4919883;28;20035;-59
2021/09/01 03:38:02;;;;;;;15.60;3.33;;;;;;;;;;4914804;28;20035;-59
2021/09/01 03:40:32;;;;;;;16.33;3.13;;;;;;;;;;4916640;28;20771;-59
2021/09/01 03:42:58;;;;;;;12.95;3.10;;;;;;;;;;4915928;28;20043;-59
2021/09/01 03:45:24;;;;;;;18.35;3.50;;;;;;;;;;4915628;28;20038;-60
2021/09/01 03:47:52;;;;;;;23.27;3.83;;;;;;;;;;4899972;29;20074;-59
2021/09/01 03:50:20;;;;;;;18.80;3.20;;;;;;;;;;4917242;28;20155;-59
2021/09/01 03:52:49;;;;;;;11.02;3.30;;;;;;;;;;4914918;28;22066;-59
2021/09/01 03:55:17;;;;;;;24.92;4.10;;;;;;;;;;4916584;28;20432;-59
2021/09/01 03:57:47;;;;;;;12.23;3.22;;;;;;;;;;4914138;28;20066;-59
2021/09/01 04:00:13;;;;;;;21.02;4.15;;;;;;;;;;4908795;29;20035;-59
2021/09/01 04:02:39;;;;;;;15.90;3.90;;;;;;;;;;4931981;28;20109;-59
2021/09/01 04:05:07;;;;;;;17.20;4.35;;;;;;;;;;4917210;28;20039;-60
2021/09/01 04:07:37;;;;;;;16.02;3.60;;;;;;;;;;4915339;28;20035;-60
2021/09/01 04:10:05;;;;;;;14.40;3.03;;;;;;;;;;4916885;28;20031;-60
2021/09/01 04:12:33;;;;;;;13.43;3.08;;;;;;;;;;4930516;28;20031;-60
2021/09/01 04:15:01;;;;;;;14.10;3.20;;;;;;;;;;4885627;28;20044;-60
2021/09/01 04:17:30;;;;;;;14.70;3.53;;;;;;;;;;4933946;28;20111;-60
2021/09/01 04:19:56;;;;;;;9.05;3.05;;;;;;;;;;4921219;28;20676;-60
2021/09/01 04:22:24;;;;;;;14.98;3.65;;;;;;;;;;4899745;28;20047;-60
2021/09/01 04:24:52;;;;;;;10.60;3.55;;;;;;;;;;4920344;28;20082;-60
2021/09/01 04:27:17;;;;;;;19.48;3.30;;;;;;;;;;4919673;28;20019;-60
2021/09/01 04:29:42;;;;;;;15.63;3.90;;;;;;;;;;4906806;28;20945;-60
2021/09/01 04:32:08;;;;;;;7.40;3.15;;;;;;;;;;4920575;28;20023;-60
2021/09/01 04:34:36;;;;;;;11.25;2.72;;;;;;;;;;4900796;28;20051;-60
2021/09/01 04:37:06;;;;;;;13.43;3.40;;;;;;;;;;4920724;28;20068;-60
2021/09/01 04:39:32;;;;;;;10.57;3.30;;;;;;;;;;4919217;28;20051;-60
2021/09/01 04:41:58;;;;;;;6.25;3.22;;;;;;;;;;4932170;28;20095;-60
2021/09/01 04:44:27;;;;;;;17.88;3.97;;;;;;;;;;4907979;29;20067;-60
2021/09/01 04:46:53;;;;;;;14.63;3.28;;;;;;;;;;4919326;28;20101;-60
2021/09/01 04:49:21;;;;;;;10.45;3.67;;;;;;;;;;4920471;28;20662;-60
2021/09/01 04:51:46;;;;;;;10.00;3.55;;;;;;;;;;4912092;29;20074;-60
2021/09/01 04:54:12;;;;;;;11.05;3.42;;;;;;;;;;4901950;28;20035;-60
2021/09/01 04:56:37;;;;;;;18.92;4.05;;;;;;;;;;4919805;28;20039;-60
2021/09/01 04:59:05;;;;;;;8.13;2.92;;;;;;;;;;4919705;28;20035;-60
2021/09/01 05:01:30;;;;;;;16.42;4.15;;;;;;;;;;4918741;28;20120;-60
2021/09/01 05:03:56;;;;;;;13.95;3.53;;;;;;;;;;4908457;29;20459;-59
2021/09/01 05:06:26;;;;;;;22.90;3.88;;;;;;;;;;4928330;28;20043;-60
2021/09/01 05:08:54;;;;;;;19.08;3.35;;;;;;;;;;4908204;28;21050;-60
2021/09/01 05:11:24;;;;;;;13.15;3.10;;;;;;;;;;4919504;28;20031;-60
2021/09/01 05:13:50;;;;;;;10.25;2.72;;;;;;;;;;4933057;28;20031;-60
2021/09/01 05:16:15;;;;;;;10.00;3.03;;;;;;;;;;4908765;29;20027;-59
2021/09/01 05:18:41;;;;;;;11.98;3.22;;;;;;;;;;4919833;28;20075;-60
2021/09/01 05:21:13;;;;;;;12.45;2.70;;;;;;;;;;4924177;28;20035;-60
2021/09/01 05:23:46;;;;;;;7.65;2.75;;;;;;;;;;4919648;28;20027;-60
2021/09/01 05:26:14;;;;;;;10.60;3.15;;;;;;;;;;4902786;28;20154;-60
2021/09/01 05:28:43;;;;;;;15.77;3.42;;;;;;;;;;4919693;28;22160;-60
2021/09/01 05:31:11;;;;;;;8.88;3.10;;;;;;;;;;4902598;28;20041;-60
2021/09/01 05:33:45;;;;;;;5.95;3.10;;;;;;;;;;4919701;28;20415;-60
2021/09/01 05:36:15;;;;;;;11.38;3.20;;;;;;;;;;4921383;28;20090;-58
2021/09/01 05:38:41;;;;;;;16.98;3.10;;;;;;;;;;4916094;28;20028;-58
2021/09/01 05:41:09;;;;;;;13.27;3.22;;;;;;;;;;4917661;28;20125;-59
2021/09/01 05:43:37;;;;;;;12.75;3.03;;;;;;;;;;4932645;28;20040;-59
2021/09/01 05:46:03;;;;;;;15.52;3.55;;;;;;;;;;4918595;28;20031;-59
2021/09/01 05:48:31;;;;;;;10.48;3.00;;;;;;;;;;4904273;28;20035;-59
2021/09/01 05:50:56;;;;;;;10.02;3.63;;;;;;;;;;4913527;28;20038;-59
2021/09/01 05:53:24;;;;;;;7.47;3.15;;;;;;;;;;4917333;28;20058;-59
2021/09/01 05:55:54;;;;;;;14.20;3.58;;;;;;;;;;4916354;28;20031;-59
2021/09/01 05:58:20;;;;;;;16.42;3.20;;;;;;;;;;4912926;28;20122;-58
2021/09/01 06:00:56;;;;;;;11.90;2.83;;;;;;;;;;4911498;28;20436;-60
2021/09/01 06:03:27;;;;;;;17.85;3.55;;;;;;;;;;4916870;28;20078;-59
2021/09/01 06:05:54;;;;;;;9.15;3.20;;;;;;;;;;4929868;28;20110;-59
2021/09/01 06:08:24;;;;;;;17.45;3.15;;;;;;;;;;4917769;28;20980;-59
2021/09/01 06:10:57;;;;;;;13.18;3.45;;;;;;;;;;4927266;28;20031;-59
2021/09/01 06:13:22;;;;;;;21.83;3.47;;;;;;;;;;4914110;28;20031;-59
2021/09/01 06:15:50;;;;;;;17.60;3.53;;;;;;;;;;4912448;28;20028;-59
2021/09/01 06:18:18;;;;;;;13.27;3.33;;;;;;;;;;4928075;28;20035;-59
2021/09/01 06:20:43;;;;;;;12.70;3.08;;;;;;;;;;4913851;28;20109;-59
2021/09/01 06:23:11;;;;;;;14.18;3.13;;;;;;;;;;4913870;28;20993;-60
2021/09/01 06:25:39;;;;;;;11.30;2.90;;;;;;;;;;4914064;28;20042;-60
2021/09/01 06:28:05;;;;;;;10.63;3.33;;;;;;;;;;4917014;28;20036;-60
2021/09/01 06:30:33;;;;;;;12.52;3.15;;;;;;;;;;4917072;28;20040;-60
2021/09/01 06:33:04;;;;;;;15.93;3.50;;;;;;;;;;4919304;28;22059;-60
2021/09/01 06:35:31;;;;;;;9.95;2.88;;;;;;;;;;4898720;28;21551;-61
2021/09/01 06:37:59;;;;;;;19.55;2.85;;;;;;;;;;4917335;28;20034;-58
2021/09/01 06:40:27;;;;;;;12.05;3.13;;;;;;;;;;4901867;28;20665;-59
2021/09/01 06:42:58;;;;;;;13.00;3.15;;;;;;;;;;4911596;28;20039;-59
2021/09/01 06:45:28;;;;;;;16.05;3.80;;;;;;;;;;4916539;28;20035;-59
2021/09/01 06:47:56;;;;;;;9.70;2.95;;;;;;;;;;4917932;28;22050;-62
2021/09/01 06:50:26;;;;;;;14.30;3.40;;;;;;;;;;4910543;28;20027;-60
2021/09/01 06:52:53;;;;;;;12.15;3.17;;;;;;;;;;4912541;28;20202;-60
2021/09/01 06:55:20;;;;;;;15.85;2.83;;;;;;;;;;4911431;28;20056;-60
2021/09/01 06:57:46;;;;;;;8.90;2.90;;;;;;;;;;4914585;28;20038;-60
2021/09/01 07:00:17;;;;;;;18.38;3.03;;;;;;;;;;4904695;28;20263;-60
2021/09/01 07:02:42;;;;;;;11.05;3.25;;;;;;;;;;4912734;28;20873;-61
2021/09/01 07:05:14;;;;;;;13.98;2.67;;;;;;;;;;4920175;28;20168;-60
2021/09/01 07:07:40;;;;;;;18.52;3.15;;;;;;;;;;4916503;28;22063;-60
2021/09/01 07:10:06;;;;;;;13.70;2.80;;;;;;;;;;4912913;28;20487;-62
2021/09/01 07:12:33;;;;;;;11.63;3.08;;;;;;;;;;4913544;28;20693;-59
2021/09/01 07:15:02;;;;;;;13.13;2.95;;;;;;;;;;4896328;28;20031;-60
2021/09/01 07:17:30;;;;;;;13.02;2.83;;;;;;;;;;4928179;28;20023;-60
2021/09/01 07:19:55;;;;;;;15.32;3.35;;;;;;;;;;4912229;28;20486;-60
2021/09/01 07:22:25;;;;;;;9.35;2.40;;;;;;;;;;4912591;28;20044;-59
2021/09/01 07:24:53;;;;;;;13.95;2.78;;;;;;;;;;4919689;28;20043;-60
2021/09/01 07:27:24;;;;;;;14.82;2.55;;;;;;;;;;4916814;28;20023;-60
2021/09/01 07:29:57;;;;;;;9.35;2.85;;;;;;;;;;4934524;28;20035;-61
2021/09/01 07:32:22;;;;;;;10.90;2.67;;;;;;;;;;4918540;28;20035;-60
2021/09/01 07:34:50;;;;;;;13.63;2.45;;;;;;;;;;4888984;28;20094;-60
2021/09/01 07:37:21;;;;;;;6.47;2.38;;;;;;;;;;4933610;28;20122;-60
2021/09/01 07:39:49;;;;;;;11.63;3.20;;;;;;;;;;4920616;28;20706;-60
2021/09/01 07:42:17;;;;;;;15.25;3.28;;;;;;;;;;4917383;28;20506;-60
2021/09/01 07:44:42;;;;;;;9.63;2.60;;;;;;;;;;4933695;28;20051;-60
2021/09/01 07:47:08;;;;;;;6.60;1.90;;;;;;;;;;4916211;28;20566;-60
2021/09/01 07:49:35;;;;;;;18.65;3.67;;;;;;;;;;4920567;28;20866;-60
2021/09/01 07:52:03;;;;;;;12.27;2.85;;;;;;;;;;4904362;28;20035;-60
2021/09/01 07:54:36;;;;;;;11.50;3.22;;;;;;;;;;4919124;28;20051;-60
2021/09/01 07:57:04;;;;;;;13.48;3.15;;;;;;;;;;4917265;28;20035;-61
2021/09/01 07:59:29;;;;;;;10.80;2.92;;;;;;;;;;4917444;28;20050;-60
2021/09/01 08:01:57;;;;;;;14.18;2.78;;;;;;;;;;4918336;28;20127;-60
2021/09/01 08:04:25;;;;;;;12.65;3.10;;;;;;;;;;4919610;28;20027;-61
2021/09/01 08:06:50;;;;;;;18.30;3.38;;;;;;;;;;4908572;29;21122;-61
2021/09/01 08:09:19;;;;;;;22.27;3.15;;;;;;;;;;4924661;28;20387;-61
2021/09/01 08:11:45;;;;;;;11.88;3.22;;;;;;;;;;4905880;29;20031;-61
2021/09/01 08:14:13;;;;;;;21.92;3.65;;;;;;;;;;4889583;28;20027;-61
2021/09/01 08:16:40;;;;;;;18.90;3.10;;;;;;;;;;4916542;28;20031;-60
2021/09/01 08:19:06;;;;;;;11.20;2.33;;;;;;;;;;4901660;29;20035;-61
2021/09/01 08:21:31;;;;;;;10.13;2.40;;;;;;;;;;4919330;28;20050;-61
2021/09/01 08:23:56;;;;;;;15.13;2.60;;;;;;;;;;4914671;28;20039;-60
2021/09/01 08:26:22;;;;;;;9.95;3.08;;;;;;;;;;4917141;28;20158;-61
2021/09/01 08:28:51;;;;;;;13.55;2.97;;;;;;;;;;4907459;29;20161;-60
2021/09/01 08:31:19;;;;;;;11.77;2.60;;;;;;;;;;4889381;29;20706;-60
2021/09/01 08:33:44;;;;;;;12.68;3.00;;;;;;;;;;4917921;28;20063;-60
2021/09/01 08:36:11;;;;;;;8.45;2.38;;;;;;;;;;4917141;28;20027;-60
2021/09/01 08:38:37;;;;;;;13.52;2.85;;;;;;;;;;4916142;28;20032;-60
2021/09/01 08:41:07;;;;;;;8.40;2.45;;;;;;;;;;4915984;28;20526;-60
2021/09/01 08:43:34;;;;;;;12.13;2.50;;;;;;;;;;4928701;28;20039;-61
2021/09/01 08:46:02;;;;;;;12.45;3.10;;;;;;;;;;4901999;29;20066;-61
2021/09/01 08:48:28;;;;;;;9.80;2.60;;;;;;;;;;4931745;28;20126;-61
2021/09/01 08:51:01;;;;;;;9.55;2.35;;;;;;;;;;4924116;28;20030;-61
2021/09/01 08:53:26;;;;;;;12.65;2.38;;;;;;;;;;4915864;28;20073;-61
2021/09/01 08:55:51;;;;;;;9.00;2.13;;;;;;;;;;4916976;28;20849;-61
2021/09/01 08:58:19;;;;;;;7.70;2.03;;;;;;;;;;4899284;29;21025;-61
2021/09/01 09:00:44;;;;;;;9.35;2.17;;;;;;;;;;4908203;29;20046;-60
2021/09/01 09:03:10;;;;;;;9.98;1.90;;;;;;;;;;4935823;28;20043;-60
2021/09/01 09:05:41;;;;;;;9.43;2.78;;;;;;;;;;4905634;28;20035;-60
2021/09/01 09:08:08;;;;;;;8.27;2.28;;;;;;;;;;4922367;28;20166;-60
2021/09/01 09:10:35;;;;;;;6.95;2.03;;;;;;;;;;4921165;28;20558;-61
2021/09/01 09:13:08;;;;;;;8.15;2.58;;;;;;;;;;4921242;28;20034;-61
2021/09/01 09:15:34;;;;;;;9.93;2.15;;;;;;;;;;4921989;28;20062;-60
2021/09/01 09:18:02;;;;;;;20.20;2.60;;;;;;;;;;4934992;28;20127;-60
2021/09/01 09:20:29;;;;;;;9.70;2.28;;;;;;;;;;4919832;28;20688;-60
2021/09/01 09:22:55;;;;;;;11.25;2.67;;;;;;;;;;4932408;28;20034;-60
2021/09/01 09:25:25;;;;;;;14.57;2.30;;;;;;;;;;4919767;28;20402;-60
2021/09/01 09:27:57;;;;;;;9.77;2.17;;;;;;;;;;4917560;28;20593;-60
2021/09/01 09:30:30;;;;;;;19.33;2.97;;;;;;;;;;4935103;28;20031;-60
2021/09/01 09:32:56;;;;;;;7.63;2.10;;;;;;;;;;4920561;28;20035;-62
2021/09/01 09:35:23;;;;;;;9.35;2.15;;;;;;;;;;4903542;28;20179;-60
2021/09/01 09:38:05;;;;;;;4.47;1.80;;;;;;;;;;4906557;28;20479;-60
2021/09/01 09:40:31;;;;;;;12.48;2.25;;;;;;;;;;4934247;28;20059;-60
2021/09/01 09:42:56;;;;;;;9.85;1.90;;;;;;;;;;4921807;28;20067;-61
2021/09/01 09:45:24;;;;;;;13.85;1.95;;;;;;;;;;4922077;28;20433;-60
2021/09/01 09:47:50;;;;;;;10.23;2.00;;;;;;;;;;4921655;28;20027;-60
2021/09/01 09:50:18;;;;;;;13.77;2.33;;;;;;;;;;4921230;28;21024;-62
2021/09/01 09:52:44;;;;;;;9.63;2.38;;;;;;;;;;4919028;28;20034;-60
2021/09/01 09:55:13;;;;;;;14.38;2.10;;;;;;;;;;4910459;29;20031;-62
2021/09/01 09:57:52;;;;;;;3.97;1.67;;;;;;;;;;4931294;28;20042;-63
2021/09/01 10:00:25;;;;;;;6.55;2.10;;;;;;;;;;4919140;28;20204;-61
2021/09/01 10:02:50;;;;;;;10.30;2.67;;;;;;;;;;4934102;28;20031;-60
2021/09/01 10:05:19;;;;;;;7.60;1.63;;;;;;;;;;4919076;28;20062;-61
2021/09/01 10:07:49;;;;;;;6.97;2.13;;;;;;;;;;4922887;28;20050;-62
2021/09/01 10:10:16;;;;;;;9.90;2.25;;;;;;;;;;4932680;28;20036;-61
2021/09/01 10:12:44;;;;;;;10.88;2.33;;;;;;;;;;4916608;28;20099;-61
2021/09/01 10:15:15;;;;;;;8.63;1.90;;;;;;;;;;4919995;28;20103;-61
2021/09/01 10:17:46;;;;;;;7.90;1.92;;;;;;;;;;4919635;28;20028;-62
2021/09/01 10:20:14;;;;;;;11.05;1.58;;;;;;;;;;4919256;28;20130;-61
2021/09/01 10:22:43;;;;;;;5.93;1.63;;;;;;;;;;4919575;28;20023;-62
2021/09/01 10:25:31;;;;;;;9.18;1.92;;;;;;;;;;4917555;28;20036;-61
2021/09/01 10:28:16;;;;;;;7.72;1.80;;;;;;;;;;4918051;28;20849;-62
2021/09/01 10:31:02;;;;;;;11.63;2.00;;;;;;;;;;4916577;28;20035;-62
2021/09/01 10:33:36;;;;;;;4.15;1.80;;;;;;;;;;4918721;28;20023;-62
2021/09/01 10:36:02;;;;;;;;;;;;;;;;;;4919247;28;21034;-61
2021/09/01 10:38:29;;;;;;;8.45;1.67;;;;;;;;;;4919176;28;19923;-61
2021/09/01 10:41:03;;;;;;;8.10;1.90;;;;;;;;;;4903454;29;22091;-61
2021/09/01 10:43:28;;;;;;;6.47;1.88;;;;;;;;;;4916073;28;20131;-61
2021/09/01 10:45:57;;;;;;;3.80;1.15;;;;;;;;;;4917266;28;20036;-61
2021/09/01 10:48:23;;;;;;;6.40;1.80;;;;;;;;;;4918437;28;20031;-61
2021/09/01 10:50:51;;;;;;;8.20;1.63;;;;;;;;;;4915696;28;20031;-61
2021/09/01 10:53:20;;;;;;;8.45;1.67;;;;;;;;;;4916968;28;20062;-62
2021/09/01 10:55:50;;;;;;;6.40;2.17;;;;;;;;;;4899675;28;20553;-62
2021/09/01 10:58:26;;;;;;;18.75;2.22;;;;;;;;;;4932275;28;20039;-61
2021/09/01 11:00:55;;;;;;;9.13;2.13;;;;;;;;;;4916960;28;20039;-61
2021/09/01 11:03:30;;;;;;;7.18;2.05;;;;;;;;;;4918883;28;20163;-61
2021/09/01 11:06:08;;;;;;;10.55;1.85;;;;;;;;;;4932746;28;20036;-61
2021/09/01 11:08:34;;;;;;;10.57;2.20;;;;;;;;;;4917843;28;20035;-61
2021/09/01 11:11:01;;;;;;;4.63;1.60;;;;;;;;;;4917931;28;20403;-61
2021/09/01 11:13:40;;;;;;;7.78;2.10;;;;;;;;;;4917544;28;20054;-61
2021/09/01 11:16:16;;;;;;;3.45;1.50;;;;;;;;;;4906657;28;20050;-60
2021/09/01 11:19:01;;;;;;;6.00;1.30;;;;;;;;;;4915544;28;20050;-61
2021/09/01 11:21:29;;;;;;;4.45;2.05;;;;;;;;;;4922714;28;20124;-61
2021/09/01 11:23:56;;;;;;;9.10;1.92;;;;;;;;;;4902264;28;20092;-61
2021/09/01 11:26:28;;;;;;;8.40;1.75;;;;;;;;;;4916477;28;20039;-61
2021/09/01 11:28:54;;;;;;;6.82;1.73;;;;;;;;;;4903815;29;20047;-61
2021/09/01 11:31:20;;;;;;;5.47;1.50;;;;;;;;;;4897360;28;20689;-61
2021/09/01 11:33:50;;;;;;;12.50;2.45;;;;;;;;;;4918305;28;20050;-61
2021/09/01 11:36:25;;;;;;;8.43;1.83;;;;;;;;;;4918092;28;20023;-61
2021/09/01 11:38:51;;;;;;;4.18;2.05;;;;;;;;;;4916539;28;20046;-61
2021/09/01 11:41:23;;;;;;;7.80;2.30;;;;;;;;;;4910669;28;20090;-61
2021/09/01 11:44:03;;;;;;;10.10;2.60;;;;;;;;;;4919958;28;20051;-62
2021/09/01 11:46:34;;;;;;;9.93;2.00;;;;;;;;;;4916312;28;20116;-62
2021/09/01 11:49:23;;;;;;;10.00;2.35;;;;;;;;;;4915871;28;20039;-62
2021/09/01 11:51:50;;;;;;;5.78;1.83;;;;;;;;;;4915009;28;20039;-62
2021/09/01 11:54:17;;;;;;;6.53;1.63;;;;;;;;;;4917460;28;20034;-61
2021/09/01 11:56:45;;;;;;;6.13;1.80;;;;;;;;;;4929260;28;20528;-62
2021/09/01 11:59:11;;;;;;;11.50;2.20;;;;;;;;;;4917691;28;20035;-61
2021/09/01 12:01:48;;;;;;;9.98;1.98;;;;;;;;;;4917479;28;20058;-61
2021/09/01 12:04:13;;;;;;;;;;;;;;;;;;4933820;28;20054;-62
2021/09/01 12:06:46;;;;;;;10.60;2.20;;;;;;;;;;4918192;28;19918;-61
2021/09/01 12:09:13;;;;;;;6.35;1.98;;;;;;;;;;4918454;28;20047;-62
2021/09/01 12:11:51;;;;;;;8.90;2.05;;;;;;;;;;4932673;28;20024;-61
2021/09/01 12:14:18;;;;;;;11.70;1.63;;;;;;;;;;4923060;28;20042;-61
2021/09/01 12:16:48;;;;;;;10.80;2.13;;;;;;;;;;4924167;28;20078;-61
2021/09/01 12:19:13;;;;;;;5.90;1.67;;;;;;;;;;4918209;28;20043;-61
2021/09/01 12:21:42;;;;;;;10.73;2.38;;;;;;;;;;4917972;28;20118;-61
2021/09/01 12:24:13;;;;;;;9.35;2.30;;;;;;;;;;4917310;28;20134;-61
2021/09/01 12:26:57;;;;;;;8.85;1.63;;;;;;;;;;4929638;28;20044;-61
2021/09/01 12:29:30;;;;;;;13.90;2.17;;;;;;;;;;4917392;28;20374;-61
2021/09/01 12:31:56;;;;;;;5.63;2.20;;;;;;;;;;4917116;28;20032;-61
2021/09/01 12:34:28;;;;;;;4.82;1.42;;;;;;;;;;4918877;28;20038;-60
2021/09/01 12:37:00;;;;;;;6.82;2.10;;;;;;;;;;4917926;28;20519;-63
2021/09/01 12:39:25;;;;;;;10.30;2.33;;;;;;;;;;4917780;28;20048;-63
2021/09/01 12:41:51;;;;;;;4.57;1.73;;;;;;;;;;4935387;28;20687;-62
2021/09/01 12:44:21;;;;;;;5.50;1.75;;;;;;;;;;4920703;28;20161;-61
2021/09/01 12:46:51;;;;;;;5.93;1.88;;;;;;;;;;4934091;28;20410;-60
2021/09/01 12:49:23;;;;;;;6.93;1.65;;;;;;;;;;4919730;28;20142;-61
2021/09/01 12:51:49;;;;;;;5.72;1.95;;;;;;;;;;4920988;28;20102;-60
2021/09/01 12:54:20;;;;;;;8.15;2.00;;;;;;;;;;4920844;28;20027;-60
2021/09/01 12:56:51;;;;;;;6.72;1.42;;;;;;;;;;4917706;28;20122;-62
2021/09/01 12:59:19;;;;;;;4.82;1.58;;;;;;;;;;4909346;28;20039;-62
2021/09/01 13:01:44;;;;;;;5.57;1.75;;;;;;;;;;4920170;28;20036;-60
2021/09/01 13:04:12;;;;;;;7.15;1.50;;;;;;;;;;4936176;28;20893;-61
2021/09/01 13:06:40;;;;;;;7.28;2.15;;;;;;;;;;4924580;28;20046;-61
2021/09/01 13:09:08;;;;;;;7.00;1.90;;;;;;;;;;4920865;28;20090;-61
2021/09/01 13:11:40;;;;;;;4.88;1.70;;;;;;;;;;4921445;28;20163;-61
2021/09/01 13:14:06;;;;;;;6.82;1.85;;;;;;;;;;4919114;28;20051;-60
2021/09/01 13:16:34;;;;;;;5.85;2.17;;;;;;;;;;4903898;28;20038;-61
2021/09/01 13:19:01;;;;;;;5.65;1.55;;;;;;;;;;4909215;28;20911;-60
2021/09/01 13:21:27;;;;;;;5.15;1.80;;;;;;;;;;4895062;29;20490;-61
2021/09/01 13:23:55;;;;;;;6.53;1.85;;;;;;;;;;4894372;28;20035;-61
2021/09/01 13:26:20;;;;;;;8.85;1.75;;;;;;;;;;4918434;28;20043;-61
2021/09/01 13:28:46;;;;;;;5.47;1.42;;;;;;;;;;4919065;28;20031;-62
2021/09/01 13:31:12;;;;;;;4.78;1.33;;;;;;;;;;4921183;28;21291;-61
2021/09/01 13:33:37;;;;;;;3.88;1.40;;;;;;;;;;4901554;29;20089;-62
2021/09/01 13:36:07;;;;;;;5.55;1.55;;;;;;;;;;4923183;28;20031;-63
2021/09/01 13:38:32;;;;;;;4.45;1.52;;;;;;;;;;4934977;28;20027;-61
2021/09/01 13:40:58;;;;;;;3.38;1.67;;;;;;;;;;4912146;28;20166;-61
2021/09/01 13:43:25;;;;;;;6.45;2.05;;;;;;;;;;4917347;28;20046;-62
2021/09/01 13:45:51;;;;;;;8.65;1.83;;;;;;;;;;4916580;28;20039;-61
2021/09/01 13:48:18;;;;;;;4.28;1.88;;;;;;;;;;4916332;28;20122;-62
2021/09/01 13:50:46;;;;;;;5.53;1.80;;;;;;;;;;4920288;28;20031;-61
2021/09/01 13:53:14;;;;;;;4.60;1.70;;;;;;;;;;4888655;28;20499;-61
2021/09/01 13:55:40;;;;;;;7.43;2.03;;;;;;;;;;4922325;28;20236;-62
2021/09/01 13:58:08;;;;;;;4.35;1.80;;;;;;;;;;4918417;28;20071;-62
2021/09/01 14:00:36;;;;;;;7.80;1.77;;;;;;;;;;4920763;28;20087;-62
2021/09/01 14:03:07;;;;;;;5.80;1.80;;;;;;;;;;4917995;28;20040;-62
2021/09/01 14:05:33;;;;;;;6.65;1.70;;;;;;;;;;4919085;28;20040;-61
2021/09/01 14:07:59;;;;;;;6.70;2.08;;;;;;;;;;4916747;28;20039;-61
2021/09/01 14:10:29;;;;;;;9.00;1.90;;;;;;;;;;4927568;28;20031;-61
2021/09/01 14:12:57;;;;;;;4.78;1.90;;;;;;;;;;4933752;28;20032;-60
2021/09/01 14:15:24;;;;;;;7.93;1.85;;;;;;;;;;4920569;28;20035;-61
2021/09/01 14:17:50;;;;;;;7.13;1.90;;;;;;;;;;4921552;28;20036;-61
2021/09/01 14:20:17;;;;;;;6.22;2.05;;;;;;;;;;4919879;28;20042;-62
2021/09/01 14:22:42;;;;;;;4.45;1.27;;;;;;;;;;4918923;28;20042;-61
2021/09/01 14:25:08;;;;;;;4.78;1.75;;;;;;;;;;4919572;28;20043;-61
2021/09/01 14:27:34;;;;;;;6.18;1.77;;;;;;;;;;4920387;28;20094;-61
2021/09/01 14:29:59;;;;;;;59.72;5.68;;;;;;;;;;4934543;28;20032;-61
2021/09/01 14:32:27;;;;;;;9.23;2.03;;;;;;;;;;4908987;28;20749;-61
2021/09/01 14:34:52;;;;;;;8.55;1.95;;;;;;;;;;4921000;28;21139;-61
2021/09/01 14:37:18;;;;;;;3.05;1.40;;;;;;;;;;4889991;29;20043;-61
2021/09/01 14:39:43;;;;;;;11.32;1.60;;;;;;;;;;4917911;28;20055;-60
2021/09/01 14:42:09;;;;;;;5.88;1.40;;;;;;;;;;4919814;28;20063;-61
2021/09/01 14:44:36;;;;;;;5.38;1.67;;;;;;;;;;4901503;29;20114;-61